sensor_id;sensor_type;location;lat;lon;timestamp;P1;durP1;ratioP1;P2;durP2;ratioP2
51724;SDS011;37801;53.224;6.552;2022-09-28T00:01:55;7.45;;;4.90;;
51724;SDS011;37801;53.224;6.552;2022-09-28T00:04:21;8.73;;;5.00;;
51724;SDS011;37801;53.224;6.552;2022-09-28T00:06:47;6.65;;;5.15;;
51724;SDS011;37801;53.224;6.552;2022-09-28T00:09:13;6.65;;;4.97;;
51724;SDS011;37801;53.224;6.552;2022-09-28T00:11:40;8.85;;;5.88;;
51724;SDS011;37801;53.224;6.552;2022-09-28T00:14:08;8.60;;;5.32;;
51724;SDS011;37801;53.224;6.552;2022-09-28T00:16:36;8.52;;;5.97;;
51724;SDS011;37801;53.224;6.552;2022-09-28T00:19:06;8.30;;;5.78;;
51724;SDS011;37801;53.224;6.552;2022-09-28T00:21:34;8.93;;;5.80;;
51724;SDS011;37801;53.224;6.552;2022-09-28T00:24:01;8.98;;;6.28;;
51724;SDS011;37801;53.224;6.552;2022-09-28T00:26:52;8.60;;;6.32;;
51724;SDS011;37801;53.224;6.552;2022-09-28T00:32:08;8.75;;;6.28;;
51724;SDS011;37801;53.224;6.552;2022-09-28T00:34:36;9.18;;;6.95;;
51724;SDS011;37801;53.224;6.552;2022-09-28T00:37:05;9.55;;;6.15;;
51724;SDS011;37801;53.224;6.552;2022-09-28T00:39:34;8.90;;;6.63;;
51724;SDS011;37801;53.224;6.552;2022-09-28T00:42:02;9.18;;;6.68;;
51724;SDS011;37801;53.224;6.552;2022-09-28T00:52:21;9.48;;;6.90;;
51724;SDS011;37801;53.224;6.552;2022-09-28T00:54:51;10.35;;;7.30;;
51724;SDS011;37801;53.224;6.552;2022-09-28T00:57:18;11.60;;;7.30;;
51724;SDS011;37801;53.224;6.552;2022-09-28T00:59:45;11.13;;;7.38;;
51724;SDS011;37801;53.224;6.552;2022-09-28T01:02:11;10.27;;;7.90;;
51724;SDS011;37801;53.224;6.552;2022-09-28T01:04:37;12.15;;;7.78;;
51724;SDS011;37801;53.224;6.552;2022-09-28T01:07:03;9.55;;;7.43;;
51724;SDS011;37801;53.224;6.552;2022-09-28T01:09:29;12.02;;;8.18;;
51724;SDS011;37801;53.224;6.552;2022-09-28T01:11:56;11.15;;;7.63;;
51724;SDS011;37801;53.224;6.552;2022-09-28T01:14:22;10.55;;;7.70;;
51724;SDS011;37801;53.224;6.552;2022-09-28T01:16:58;9.73;;;7.57;;
51724;SDS011;37801;53.224;6.552;2022-09-28T01:24:55;10.70;;;7.88;;
51724;SDS011;37801;53.224;6.552;2022-09-28T01:29:54;10.13;;;7.63;;
51724;SDS011;37801;53.224;6.552;2022-09-28T01:32:35;12.90;;;8.10;;
51724;SDS011;37801;53.224;6.552;2022-09-28T01:35:12;12.88;;;8.80;;
51724;SDS011;37801;53.224;6.552;2022-09-28T01:37:51;10.82;;;8.00;;
51724;SDS011;37801;53.224;6.552;2022-09-28T01:40:30;10.50;;;7.53;;
51724;SDS011;37801;53.224;6.552;2022-09-28T01:43:08;11.63;;;8.02;;
51724;SDS011;37801;53.224;6.552;2022-09-28T01:45:52;11.20;;;7.45;;
51724;SDS011;37801;53.224;6.552;2022-09-28T01:48:22;9.15;;;7.18;;
51724;SDS011;37801;53.224;6.552;2022-09-28T01:50:56;12.20;;;8.05;;
51724;SDS011;37801;53.224;6.552;2022-09-28T01:53:36;10.02;;;7.85;;
51724;SDS011;37801;53.224;6.552;2022-09-28T01:58:50;10.15;;;7.18;;
51724;SDS011;37801;53.224;6.552;2022-09-28T02:01:26;10.52;;;7.82;;
51724;SDS011;37801;53.224;6.552;2022-09-28T02:04:10;11.48;;;8.57;;
51724;SDS011;37801;53.224;6.552;2022-09-28T02:06:59;13.52;;;8.75;;
51724;SDS011;37801;53.224;6.552;2022-09-28T02:09:34;10.70;;;8.20;;
51724;SDS011;37801;53.224;6.552;2022-09-28T02:12:22;13.57;;;9.05;;
51724;SDS011;37801;53.224;6.552;2022-09-28T02:14:58;14.73;;;9.15;;
51724;SDS011;37801;53.224;6.552;2022-09-28T02:17:51;13.27;;;8.70;;
51724;SDS011;37801;53.224;6.552;2022-09-28T02:20:20;12.85;;;9.70;;
51724;SDS011;37801;53.224;6.552;2022-09-28T02:22:52;13.68;;;9.23;;
51724;SDS011;37801;53.224;6.552;2022-09-28T02:27:59;15.30;;;10.27;;
51724;SDS011;37801;53.224;6.552;2022-09-28T02:30:26;13.90;;;9.95;;
51724;SDS011;37801;53.224;6.552;2022-09-28T02:32:55;15.10;;;11.20;;
51724;SDS011;37801;53.224;6.552;2022-09-28T02:35:24;15.57;;;10.25;;
51724;SDS011;37801;53.224;6.552;2022-09-28T02:37:50;16.02;;;10.65;;
51724;SDS011;37801;53.224;6.552;2022-09-28T02:40:17;17.35;;;9.98;;
51724;SDS011;37801;53.224;6.552;2022-09-28T02:43:08;14.40;;;10.40;;
51724;SDS011;37801;53.224;6.552;2022-09-28T02:50:50;14.93;;;10.73;;
51724;SDS011;37801;53.224;6.552;2022-09-28T02:56:36;13.02;;;10.18;;
51724;SDS011;37801;53.224;6.552;2022-09-28T03:07:28;16.65;;;11.63;;
51724;SDS011;37801;53.224;6.552;2022-09-28T03:10:31;17.52;;;11.70;;
51724;SDS011;37801;53.224;6.552;2022-09-28T03:13:04;16.23;;;12.15;;
51724;SDS011;37801;53.224;6.552;2022-09-28T03:15:31;16.38;;;12.25;;
51724;SDS011;37801;53.224;6.552;2022-09-28T03:17:58;17.80;;;12.95;;
51724;SDS011;37801;53.224;6.552;2022-09-28T03:20:24;18.70;;;13.13;;
51724;SDS011;37801;53.224;6.552;2022-09-28T03:22:51;16.80;;;12.40;;
51724;SDS011;37801;53.224;6.552;2022-09-28T03:25:18;14.07;;;11.15;;
51724;SDS011;37801;53.224;6.552;2022-09-28T03:27:43;15.80;;;11.95;;
51724;SDS011;37801;53.224;6.552;2022-09-28T03:30:09;15.70;;;11.68;;
51724;SDS011;37801;53.224;6.552;2022-09-28T03:32:36;15.10;;;11.35;;
51724;SDS011;37801;53.224;6.552;2022-09-28T03:35:03;14.40;;;11.50;;
51724;SDS011;37801;53.224;6.552;2022-09-28T03:37:29;14.23;;;11.35;;
51724;SDS011;37801;53.224;6.552;2022-09-28T03:39:55;14.27;;;10.93;;
51724;SDS011;37801;53.224;6.552;2022-09-28T03:42:21;15.60;;;11.95;;
51724;SDS011;37801;53.224;6.552;2022-09-28T03:44:47;11.90;;;10.18;;
51724;SDS011;37801;53.224;6.552;2022-09-28T03:47:12;12.90;;;10.50;;
51724;SDS011;37801;53.224;6.552;2022-09-28T03:49:39;16.70;;;10.65;;
51724;SDS011;37801;53.224;6.552;2022-09-28T03:52:05;13.82;;;10.82;;
51724;SDS011;37801;53.224;6.552;2022-09-28T03:54:31;11.80;;;10.02;;
51724;SDS011;37801;53.224;6.552;2022-09-28T03:56:57;11.30;;;9.43;;
51724;SDS011;37801;53.224;6.552;2022-09-28T03:59:22;12.68;;;9.27;;
51724;SDS011;37801;53.224;6.552;2022-09-28T04:01:48;14.48;;;10.00;;
51724;SDS011;37801;53.224;6.552;2022-09-28T04:04:15;11.52;;;9.38;;
51724;SDS011;37801;53.224;6.552;2022-09-28T04:06:40;12.35;;;9.25;;
51724;SDS011;37801;53.224;6.552;2022-09-28T04:09:07;12.57;;;9.45;;
51724;SDS011;37801;53.224;6.552;2022-09-28T04:11:33;10.35;;;8.73;;
51724;SDS011;37801;53.224;6.552;2022-09-28T04:13:59;9.70;;;8.57;;
51724;SDS011;37801;53.224;6.552;2022-09-28T04:16:25;9.30;;;8.02;;
51724;SDS011;37801;53.224;6.552;2022-09-28T04:18:51;9.27;;;7.97;;
51724;SDS011;37801;53.224;6.552;2022-09-28T04:21:17;9.65;;;7.78;;
51724;SDS011;37801;53.224;6.552;2022-09-28T04:23:44;9.27;;;7.60;;
51724;SDS011;37801;53.224;6.552;2022-09-28T04:26:12;8.75;;;7.20;;
51724;SDS011;37801;53.224;6.552;2022-09-28T04:28:41;9.77;;;7.65;;
51724;SDS011;37801;53.224;6.552;2022-09-28T04:31:26;9.60;;;7.72;;
51724;SDS011;37801;53.224;6.552;2022-09-28T04:33:53;9.95;;;7.75;;
51724;SDS011;37801;53.224;6.552;2022-09-28T04:36:21;8.95;;;7.53;;
51724;SDS011;37801;53.224;6.552;2022-09-28T04:38:49;10.30;;;8.02;;
51724;SDS011;37801;53.224;6.552;2022-09-28T04:41:16;10.65;;;8.20;;
51724;SDS011;37801;53.224;6.552;2022-09-28T04:43:42;9.98;;;8.02;;
51724;SDS011;37801;53.224;6.552;2022-09-28T04:46:10;10.20;;;8.57;;
51724;SDS011;37801;53.224;6.552;2022-09-28T04:48:36;12.35;;;9.23;;
51724;SDS011;37801;53.224;6.552;2022-09-28T04:51:02;11.02;;;8.93;;
51724;SDS011;37801;53.224;6.552;2022-09-28T04:53:28;11.57;;;8.95;;
51724;SDS011;37801;53.224;6.552;2022-09-28T04:55:58;14.73;;;9.65;;
51724;SDS011;37801;53.224;6.552;2022-09-28T04:58:30;13.43;;;9.80;;
51724;SDS011;37801;53.224;6.552;2022-09-28T05:00:57;11.00;;;9.02;;
51724;SDS011;37801;53.224;6.552;2022-09-28T05:03:24;11.35;;;8.98;;
51724;SDS011;37801;53.224;6.552;2022-09-28T05:05:50;11.05;;;8.88;;
51724;SDS011;37801;53.224;6.552;2022-09-28T05:08:16;11.35;;;8.85;;
51724;SDS011;37801;53.224;6.552;2022-09-28T05:10:42;10.68;;;8.60;;
51724;SDS011;37801;53.224;6.552;2022-09-28T05:13:08;11.68;;;9.43;;
51724;SDS011;37801;53.224;6.552;2022-09-28T05:15:36;14.02;;;10.27;;
51724;SDS011;37801;53.224;6.552;2022-09-28T05:18:02;12.18;;;9.25;;
51724;SDS011;37801;53.224;6.552;2022-09-28T05:20:29;12.65;;;9.05;;
51724;SDS011;37801;53.224;6.552;2022-09-28T05:22:55;13.60;;;10.13;;
51724;SDS011;37801;53.224;6.552;2022-09-28T05:25:21;12.18;;;9.20;;
51724;SDS011;37801;53.224;6.552;2022-09-28T05:27:47;11.77;;;9.73;;
51724;SDS011;37801;53.224;6.552;2022-09-28T05:30:12;13.30;;;9.73;;
51724;SDS011;37801;53.224;6.552;2022-09-28T05:32:42;12.27;;;9.80;;
51724;SDS011;37801;53.224;6.552;2022-09-28T05:35:09;13.88;;;10.18;;
51724;SDS011;37801;53.224;6.552;2022-09-28T05:37:36;14.23;;;10.98;;
51724;SDS011;37801;53.224;6.552;2022-09-28T05:40:03;13.23;;;10.25;;
51724;SDS011;37801;53.224;6.552;2022-09-28T05:42:29;14.75;;;10.27;;
51724;SDS011;37801;53.224;6.552;2022-09-28T05:44:55;14.13;;;10.98;;
51724;SDS011;37801;53.224;6.552;2022-09-28T05:47:24;15.57;;;10.65;;
51724;SDS011;37801;53.224;6.552;2022-09-28T05:49:51;14.05;;;9.95;;
51724;SDS011;37801;53.224;6.552;2022-09-28T05:52:17;15.07;;;10.95;;
51724;SDS011;37801;53.224;6.552;2022-09-28T05:54:43;12.73;;;10.43;;
51724;SDS011;37801;53.224;6.552;2022-09-28T05:57:10;15.57;;;11.50;;
51724;SDS011;37801;53.224;6.552;2022-09-28T05:59:36;18.83;;;11.82;;
51724;SDS011;37801;53.224;6.552;2022-09-28T06:02:02;18.13;;;12.50;;
51724;SDS011;37801;53.224;6.552;2022-09-28T06:04:28;17.00;;;12.30;;
51724;SDS011;37801;53.224;6.552;2022-09-28T06:06:54;16.55;;;11.63;;
51724;SDS011;37801;53.224;6.552;2022-09-28T06:09:22;15.55;;;12.10;;
51724;SDS011;37801;53.224;6.552;2022-09-28T06:11:48;15.15;;;11.73;;
51724;SDS011;37801;53.224;6.552;2022-09-28T06:14:14;15.57;;;11.38;;
51724;SDS011;37801;53.224;6.552;2022-09-28T06:16:40;14.88;;;11.05;;
51724;SDS011;37801;53.224;6.552;2022-09-28T06:19:07;15.63;;;11.43;;
51724;SDS011;37801;53.224;6.552;2022-09-28T06:21:33;15.10;;;11.20;;
51724;SDS011;37801;53.224;6.552;2022-09-28T06:24:00;14.50;;;11.30;;
51724;SDS011;37801;53.224;6.552;2022-09-28T06:26:26;13.40;;;10.32;;
51724;SDS011;37801;53.224;6.552;2022-09-28T06:28:52;14.68;;;10.35;;
51724;SDS011;37801;53.224;6.552;2022-09-28T06:31:17;13.23;;;9.95;;
51724;SDS011;37801;53.224;6.552;2022-09-28T06:33:48;14.13;;;10.73;;
51724;SDS011;37801;53.224;6.552;2022-09-28T06:36:15;13.00;;;10.45;;
51724;SDS011;37801;53.224;6.552;2022-09-28T06:38:41;14.57;;;10.90;;
51724;SDS011;37801;53.224;6.552;2022-09-28T06:41:08;14.75;;;10.82;;
51724;SDS011;37801;53.224;6.552;2022-09-28T06:43:35;15.07;;;11.02;;
51724;SDS011;37801;53.224;6.552;2022-09-28T06:46:04;15.73;;;10.80;;
51724;SDS011;37801;53.224;6.552;2022-09-28T06:48:31;15.32;;;10.10;;
51724;SDS011;37801;53.224;6.552;2022-09-28T06:50:58;14.27;;;10.63;;
51724;SDS011;37801;53.224;6.552;2022-09-28T06:53:25;12.82;;;10.20;;
51724;SDS011;37801;53.224;6.552;2022-09-28T06:55:52;12.55;;;10.32;;
51724;SDS011;37801;53.224;6.552;2022-09-28T06:58:18;12.68;;;9.85;;
51724;SDS011;37801;53.224;6.552;2022-09-28T07:00:45;14.20;;;10.90;;
51724;SDS011;37801;53.224;6.552;2022-09-28T07:03:13;12.07;;;9.75;;
51724;SDS011;37801;53.224;6.552;2022-09-28T07:05:45;13.27;;;10.68;;
51724;SDS011;37801;53.224;6.552;2022-09-28T07:08:13;13.40;;;10.57;;
51724;SDS011;37801;53.224;6.552;2022-09-28T07:10:40;12.25;;;9.90;;
51724;SDS011;37801;53.224;6.552;2022-09-28T07:13:07;12.05;;;10.18;;
51724;SDS011;37801;53.224;6.552;2022-09-28T07:15:34;12.63;;;9.88;;
51724;SDS011;37801;53.224;6.552;2022-09-28T07:18:00;13.55;;;10.55;;
51724;SDS011;37801;53.224;6.552;2022-09-28T07:20:27;13.20;;;10.00;;
51724;SDS011;37801;53.224;6.552;2022-09-28T07:22:54;16.42;;;10.35;;
51724;SDS011;37801;53.224;6.552;2022-09-28T07:25:21;14.77;;;10.23;;
51724;SDS011;37801;53.224;6.552;2022-09-28T07:27:48;14.18;;;11.07;;
51724;SDS011;37801;53.224;6.552;2022-09-28T07:30:14;13.43;;;10.85;;
51724;SDS011;37801;53.224;6.552;2022-09-28T07:32:40;14.05;;;11.43;;
51724;SDS011;37801;53.224;6.552;2022-09-28T07:35:06;14.88;;;11.52;;
51724;SDS011;37801;53.224;6.552;2022-09-28T07:37:36;15.48;;;11.95;;
51724;SDS011;37801;53.224;6.552;2022-09-28T07:40:03;14.95;;;11.60;;
51724;SDS011;37801;53.224;6.552;2022-09-28T07:42:48;15.60;;;11.38;;
51724;SDS011;37801;53.224;6.552;2022-09-28T07:45:15;14.95;;;11.27;;
51724;SDS011;37801;53.224;6.552;2022-09-28T07:47:41;14.88;;;11.65;;
51724;SDS011;37801;53.224;6.552;2022-09-28T07:50:07;15.93;;;12.13;;
51724;SDS011;37801;53.224;6.552;2022-09-28T07:52:33;15.02;;;11.77;;
51724;SDS011;37801;53.224;6.552;2022-09-28T07:54:59;16.02;;;12.48;;
51724;SDS011;37801;53.224;6.552;2022-09-28T07:57:28;14.63;;;11.60;;
51724;SDS011;37801;53.224;6.552;2022-09-28T07:59:57;15.43;;;10.82;;
51724;SDS011;37801;53.224;6.552;2022-09-28T08:02:24;13.55;;;11.00;;
51724;SDS011;37801;53.224;6.552;2022-09-28T08:04:50;13.70;;;11.27;;
51724;SDS011;37801;53.224;6.552;2022-09-28T08:07:16;16.05;;;10.05;;
51724;SDS011;37801;53.224;6.552;2022-09-28T08:09:47;13.60;;;10.77;;
51724;SDS011;37801;53.224;6.552;2022-09-28T08:12:13;13.55;;;10.75;;
51724;SDS011;37801;53.224;6.552;2022-09-28T08:14:39;16.88;;;11.65;;
51724;SDS011;37801;53.224;6.552;2022-09-28T08:17:05;14.90;;;11.05;;
51724;SDS011;37801;53.224;6.552;2022-09-28T08:19:32;15.93;;;11.20;;
51724;SDS011;37801;53.224;6.552;2022-09-28T08:22:18;14.80;;;11.23;;
51724;SDS011;37801;53.224;6.552;2022-09-28T08:24:44;15.57;;;11.00;;
51724;SDS011;37801;53.224;6.552;2022-09-28T08:27:11;15.45;;;10.88;;
51724;SDS011;37801;53.224;6.552;2022-09-28T08:29:38;16.23;;;11.57;;
51724;SDS011;37801;53.224;6.552;2022-09-28T08:32:04;15.95;;;11.57;;
51724;SDS011;37801;53.224;6.552;2022-09-28T08:34:35;13.77;;;10.35;;
51724;SDS011;37801;53.224;6.552;2022-09-28T08:37:02;14.77;;;11.13;;
51724;SDS011;37801;53.224;6.552;2022-09-28T08:39:29;17.83;;;11.82;;
51724;SDS011;37801;53.224;6.552;2022-09-28T08:44:43;16.17;;;12.38;;
51724;SDS011;37801;53.224;6.552;2022-09-28T08:47:22;15.07;;;11.80;;
51724;SDS011;37801;53.224;6.552;2022-09-28T08:50:13;14.52;;;11.40;;
51724;SDS011;37801;53.224;6.552;2022-09-28T08:52:44;17.73;;;11.70;;
51724;SDS011;37801;53.224;6.552;2022-09-28T08:55:31;16.55;;;12.10;;
51724;SDS011;37801;53.224;6.552;2022-09-28T08:58:04;14.93;;;11.45;;
51724;SDS011;37801;53.224;6.552;2022-09-28T09:00:54;14.85;;;11.40;;
51724;SDS011;37801;53.224;6.552;2022-09-28T09:03:33;14.02;;;10.70;;
51724;SDS011;37801;53.224;6.552;2022-09-28T09:22:40;13.55;;;10.80;;
51724;SDS011;37801;53.224;6.552;2022-09-28T09:44:44;10.13;;;7.88;;
51724;SDS011;37801;53.224;6.552;2022-09-28T09:47:52;11.30;;;7.82;;
51724;SDS011;37801;53.224;6.552;2022-09-28T09:50:35;10.90;;;7.53;;
51724;SDS011;37801;53.224;6.552;2022-09-28T09:55:49;10.70;;;7.93;;
51724;SDS011;37801;53.224;6.552;2022-09-28T09:58:23;9.07;;;6.43;;
51724;SDS011;37801;53.224;6.552;2022-09-28T10:00:53;8.40;;;5.40;;
51724;SDS011;37801;53.224;6.552;2022-09-28T10:03:27;8.60;;;5.15;;
51724;SDS011;37801;53.224;6.552;2022-09-28T10:05:58;7.88;;;5.13;;
51724;SDS011;37801;53.224;6.552;2022-09-28T10:08:28;6.30;;;4.07;;
51724;SDS011;37801;53.224;6.552;2022-09-28T10:11:21;5.53;;;4.18;;
51724;SDS011;37801;53.224;6.552;2022-09-28T10:13:58;5.03;;;3.72;;
51724;SDS011;37801;53.224;6.552;2022-09-28T10:16:23;5.47;;;3.75;;
51724;SDS011;37801;53.224;6.552;2022-09-28T10:18:49;5.65;;;3.35;;
51724;SDS011;37801;53.224;6.552;2022-09-28T10:21:16;6.45;;;3.40;;
51724;SDS011;37801;53.224;6.552;2022-09-28T10:23:44;5.80;;;3.00;;
51724;SDS011;37801;53.224;6.552;2022-09-28T10:26:15;4.00;;;3.00;;
51724;SDS011;37801;53.224;6.552;2022-09-28T10:28:55;5.18;;;2.67;;
51724;SDS011;37801;53.224;6.552;2022-09-28T10:31:41;4.13;;;2.33;;
51724;SDS011;37801;53.224;6.552;2022-09-28T10:34:10;3.97;;;2.03;;
51724;SDS011;37801;53.224;6.552;2022-09-28T10:36:45;2.17;;;1.40;;
51724;SDS011;37801;53.224;6.552;2022-09-28T10:39:33;3.30;;;1.58;;
51724;SDS011;37801;53.224;6.552;2022-09-28T10:42:11;3.45;;;2.25;;
51724;SDS011;37801;53.224;6.552;2022-09-28T10:47:25;5.73;;;4.20;;
51724;SDS011;37801;53.224;6.552;2022-09-28T10:49:56;7.38;;;4.35;;
51724;SDS011;37801;53.224;6.552;2022-09-28T10:54:53;7.00;;;4.40;;
51724;SDS011;37801;53.224;6.552;2022-09-28T10:57:26;6.45;;;4.10;;
51724;SDS011;37801;53.224;6.552;2022-09-28T10:59:59;5.38;;;3.95;;
51724;SDS011;37801;53.224;6.552;2022-09-28T11:02:31;6.88;;;4.05;;
51724;SDS011;37801;53.224;6.552;2022-09-28T11:05:02;6.28;;;3.70;;
51724;SDS011;37801;53.224;6.552;2022-09-28T11:07:30;4.18;;;2.95;;
51724;SDS011;37801;53.224;6.552;2022-09-28T11:09:58;4.10;;;2.80;;
51724;SDS011;37801;53.224;6.552;2022-09-28T11:12:41;4.30;;;3.10;;
51724;SDS011;37801;53.224;6.552;2022-09-28T11:15:10;4.40;;;2.83;;
51724;SDS011;37801;53.224;6.552;2022-09-28T11:17:42;3.30;;;2.47;;
51724;SDS011;37801;53.224;6.552;2022-09-28T11:26:06;4.03;;;2.25;;
51724;SDS011;37801;53.224;6.552;2022-09-28T11:28:36;4.35;;;2.20;;
51724;SDS011;37801;53.224;6.552;2022-09-28T11:31:03;3.90;;;2.58;;
51724;SDS011;37801;53.224;6.552;2022-09-28T11:44:04;2.15;;;1.10;;
51724;SDS011;37801;53.224;6.552;2022-09-28T11:47:06;3.05;;;1.25;;
51724;SDS011;37801;53.224;6.552;2022-09-28T11:50:07;1.98;;;1.10;;
51724;SDS011;37801;53.224;6.552;2022-09-28T11:52:55;2.50;;;1.13;;
51724;SDS011;37801;53.224;6.552;2022-09-28T12:00:49;2.30;;;1.30;;
51724;SDS011;37801;53.224;6.552;2022-09-28T12:03:22;2.33;;;1.30;;
51724;SDS011;37801;53.224;6.552;2022-09-28T12:06:07;2.50;;;1.30;;
51724;SDS011;37801;53.224;6.552;2022-09-28T12:08:40;2.88;;;1.65;;
51724;SDS011;37801;53.224;6.552;2022-09-28T12:11:16;2.97;;;1.60;;
51724;SDS011;37801;53.224;6.552;2022-09-28T12:13:45;2.57;;;1.53;;
51724;SDS011;37801;53.224;6.552;2022-09-28T12:16:20;4.25;;;1.90;;
51724;SDS011;37801;53.224;6.552;2022-09-28T12:18:55;3.65;;;1.75;;
51724;SDS011;37801;53.224;6.552;2022-09-28T12:21:43;2.67;;;1.58;;
51724;SDS011;37801;53.224;6.552;2022-09-28T12:24:30;1.95;;;1.20;;
51724;SDS011;37801;53.224;6.552;2022-09-28T12:34:52;2.40;;;0.98;;
51724;SDS011;37801;53.224;6.552;2022-09-28T12:53:21;5.35;;;1.08;;
51724;SDS011;37801;53.224;6.552;2022-09-28T12:56:03;2.05;;;0.70;;
51724;SDS011;37801;53.224;6.552;2022-09-28T13:01:42;4.38;;;1.65;;
51724;SDS011;37801;53.224;6.552;2022-09-28T13:07:17;4.40;;;2.85;;
51724;SDS011;37801;53.224;6.552;2022-09-28T13:13:00;8.77;;;4.53;;
51724;SDS011;37801;53.224;6.552;2022-09-28T13:18:42;4.47;;;2.88;;
51724;SDS011;37801;53.224;6.552;2022-09-28T13:21:40;3.78;;;2.50;;
51724;SDS011;37801;53.224;6.552;2022-09-28T13:24:22;3.63;;;2.55;;
51724;SDS011;37801;53.224;6.552;2022-09-28T13:26:58;3.42;;;2.10;;
51724;SDS011;37801;53.224;6.552;2022-09-28T13:29:31;2.83;;;1.90;;
51724;SDS011;37801;53.224;6.552;2022-09-28T13:31:58;2.90;;;1.70;;
51724;SDS011;37801;53.224;6.552;2022-09-28T13:34:28;3.47;;;1.85;;
51724;SDS011;37801;53.224;6.552;2022-09-28T13:37:39;3.97;;;1.55;;
51724;SDS011;37801;53.224;6.552;2022-09-28T13:39:54;5.25;;;2.25;;
51724;SDS011;37801;53.224;6.552;2022-09-28T13:53:14;4.30;;;2.80;;
51724;SDS011;37801;53.224;6.552;2022-09-28T14:01:34;4.93;;;1.83;;
51724;SDS011;37801;53.224;6.552;2022-09-28T14:06:36;1.65;;;1.10;;
51724;SDS011;37801;53.224;6.552;2022-09-28T14:11:41;3.05;;;1.17;;
51724;SDS011;37801;53.224;6.552;2022-09-28T14:14:57;2.78;;;1.00;;
51724;SDS011;37801;53.224;6.552;2022-09-28T14:25:32;3.40;;;1.37;;
51724;SDS011;37801;53.224;6.552;2022-09-28T14:28:20;3.47;;;1.25;;
51724;SDS011;37801;53.224;6.552;2022-09-28T14:30:53;3.47;;;0.97;;
51724;SDS011;37801;53.224;6.552;2022-09-28T14:33:29;1.73;;;1.13;;
51724;SDS011;37801;53.224;6.552;2022-09-28T14:36:03;2.10;;;1.20;;
51724;SDS011;37801;53.224;6.552;2022-09-28T14:39:20;1.75;;;1.08;;
51724;SDS011;37801;53.224;6.552;2022-09-28T14:42:16;1.33;;;0.90;;
51724;SDS011;37801;53.224;6.552;2022-09-28T14:47:35;2.40;;;0.93;;
51724;SDS011;37801;53.224;6.552;2022-09-28T14:52:51;2.38;;;0.73;;
51724;SDS011;37801;53.224;6.552;2022-09-28T14:55:45;1.67;;;0.93;;
51724;SDS011;37801;53.224;6.552;2022-09-28T14:58:21;3.05;;;0.93;;
51724;SDS011;37801;53.224;6.552;2022-09-28T15:00:53;1.15;;;0.60;;
51724;SDS011;37801;53.224;6.552;2022-09-28T15:03:31;1.73;;;0.93;;
51724;SDS011;37801;53.224;6.552;2022-09-28T15:05:59;2.85;;;1.20;;
51724;SDS011;37801;53.224;6.552;2022-09-28T15:08:35;2.35;;;0.90;;
51724;SDS011;37801;53.224;6.552;2022-09-28T15:11:02;2.45;;;1.02;;
51724;SDS011;37801;53.224;6.552;2022-09-28T15:13:28;1.90;;;0.90;;
51724;SDS011;37801;53.224;6.552;2022-09-28T15:16:05;1.88;;;0.95;;
51724;SDS011;37801;53.224;6.552;2022-09-28T15:21:37;3.72;;;1.70;;
51724;SDS011;37801;53.224;6.552;2022-09-28T15:26:55;2.83;;;1.27;;
51724;SDS011;37801;53.224;6.552;2022-09-28T15:29:22;2.67;;;1.30;;
51724;SDS011;37801;53.224;6.552;2022-09-28T15:31:49;3.90;;;1.30;;
51724;SDS011;37801;53.224;6.552;2022-09-28T15:37:18;3.15;;;1.42;;
51724;SDS011;37801;53.224;6.552;2022-09-28T15:39:57;2.53;;;1.35;;
51724;SDS011;37801;53.224;6.552;2022-09-28T15:42:24;3.15;;;1.50;;
51724;SDS011;37801;53.224;6.552;2022-09-28T15:44:58;2.60;;;1.25;;
51724;SDS011;37801;53.224;6.552;2022-09-28T15:47:28;3.95;;;1.35;;
51724;SDS011;37801;53.224;6.552;2022-09-28T15:50:03;2.10;;;1.23;;
51724;SDS011;37801;53.224;6.552;2022-09-28T15:55:16;2.17;;;1.30;;
51724;SDS011;37801;53.224;6.552;2022-09-28T15:57:45;1.65;;;1.20;;
51724;SDS011;37801;53.224;6.552;2022-09-28T16:00:22;5.53;;;1.33;;
51724;SDS011;37801;53.224;6.552;2022-09-28T16:05:35;2.30;;;1.10;;
51724;SDS011;37801;53.224;6.552;2022-09-28T16:08:10;1.75;;;1.00;;
51724;SDS011;37801;53.224;6.552;2022-09-28T16:10:51;2.88;;;0.98;;
51724;SDS011;37801;53.224;6.552;2022-09-28T16:13:26;1.33;;;0.73;;
51724;SDS011;37801;53.224;6.552;2022-09-28T16:15:53;1.48;;;0.73;;
51724;SDS011;37801;53.224;6.552;2022-09-28T16:18:24;1.77;;;0.75;;
51724;SDS011;37801;53.224;6.552;2022-09-28T16:20:53;1.63;;;0.70;;
51724;SDS011;37801;53.224;6.552;2022-09-28T16:23:25;1.40;;;0.73;;
51724;SDS011;37801;53.224;6.552;2022-09-28T16:31:09;0.85;;;0.65;;
51724;SDS011;37801;53.224;6.552;2022-09-28T16:33:55;2.13;;;0.95;;
51724;SDS011;37801;53.224;6.552;2022-09-28T16:36:24;2.05;;;0.77;;
51724;SDS011;37801;53.224;6.552;2022-09-28T16:38:53;1.45;;;0.77;;
51724;SDS011;37801;53.224;6.552;2022-09-28T16:41:26;2.97;;;0.85;;
51724;SDS011;37801;53.224;6.552;2022-09-28T16:43:55;1.63;;;0.88;;
51724;SDS011;37801;53.224;6.552;2022-09-28T16:46:27;1.75;;;0.80;;
51724;SDS011;37801;53.224;6.552;2022-09-28T16:49:01;3.20;;;1.00;;
51724;SDS011;37801;53.224;6.552;2022-09-28T16:51:30;2.25;;;0.90;;
51724;SDS011;37801;53.224;6.552;2022-09-28T16:54:10;1.95;;;0.73;;
51724;SDS011;37801;53.224;6.552;2022-09-28T16:56:58;2.33;;;1.00;;
51724;SDS011;37801;53.224;6.552;2022-09-28T16:59:24;2.20;;;0.80;;
51724;SDS011;37801;53.224;6.552;2022-09-28T17:01:50;2.50;;;1.10;;
51724;SDS011;37801;53.224;6.552;2022-09-28T17:04:15;2.30;;;1.10;;
51724;SDS011;37801;53.224;6.552;2022-09-28T17:06:41;2.42;;;1.40;;
51724;SDS011;37801;53.224;6.552;2022-09-28T17:09:08;2.60;;;1.10;;
51724;SDS011;37801;53.224;6.552;2022-09-28T17:11:36;3.05;;;1.30;;
51724;SDS011;37801;53.224;6.552;2022-09-28T17:14:02;2.83;;;1.33;;
51724;SDS011;37801;53.224;6.552;2022-09-28T17:16:28;4.60;;;1.40;;
51724;SDS011;37801;53.224;6.552;2022-09-28T17:18:57;3.10;;;1.40;;
51724;SDS011;37801;53.224;6.552;2022-09-28T17:21:24;3.25;;;1.67;;
51724;SDS011;37801;53.224;6.552;2022-09-28T17:23:50;3.28;;;1.52;;
51724;SDS011;37801;53.224;6.552;2022-09-28T17:26:26;3.20;;;1.55;;
51724;SDS011;37801;53.224;6.552;2022-09-28T17:28:55;4.47;;;1.70;;
51724;SDS011;37801;53.224;6.552;2022-09-28T17:31:23;2.63;;;1.70;;
51724;SDS011;37801;53.224;6.552;2022-09-28T17:33:49;2.47;;;1.45;;
51724;SDS011;37801;53.224;6.552;2022-09-28T17:36:16;3.28;;;1.85;;
51724;SDS011;37801;53.224;6.552;2022-09-28T17:38:43;2.60;;;1.77;;
51724;SDS011;37801;53.224;6.552;2022-09-28T17:41:10;4.97;;;1.80;;
51724;SDS011;37801;53.224;6.552;2022-09-28T17:43:38;3.17;;;1.73;;
51724;SDS011;37801;53.224;6.552;2022-09-28T17:46:21;5.35;;;1.83;;
51724;SDS011;37801;53.224;6.552;2022-09-28T17:48:54;3.60;;;2.13;;
51724;SDS011;37801;53.224;6.552;2022-09-28T17:51:23;4.82;;;2.45;;
51724;SDS011;37801;53.224;6.552;2022-09-28T17:53:56;5.85;;;2.80;;
51724;SDS011;37801;53.224;6.552;2022-09-28T17:56:25;4.72;;;3.30;;
51724;SDS011;37801;53.224;6.552;2022-09-28T17:58:55;4.93;;;2.97;;
51724;SDS011;37801;53.224;6.552;2022-09-28T18:01:22;6.57;;;4.50;;
51724;SDS011;37801;53.224;6.552;2022-09-28T18:03:48;8.50;;;5.40;;
51724;SDS011;37801;53.224;6.552;2022-09-28T18:06:15;10.40;;;7.15;;
51724;SDS011;37801;53.224;6.552;2022-09-28T18:08:47;9.88;;;6.82;;
51724;SDS011;37801;53.224;6.552;2022-09-28T18:11:14;8.18;;;6.13;;
51724;SDS011;37801;53.224;6.552;2022-09-28T18:13:41;7.75;;;5.25;;
51724;SDS011;37801;53.224;6.552;2022-09-28T18:16:10;8.02;;;5.05;;
51724;SDS011;37801;53.224;6.552;2022-09-28T18:18:36;7.78;;;4.53;;
51724;SDS011;37801;53.224;6.552;2022-09-28T18:21:07;7.68;;;4.45;;
51724;SDS011;37801;53.224;6.552;2022-09-28T18:23:36;5.70;;;4.15;;